Time;durP1;ratioP1;P1;durP2;ratioP2;P2;SDS_P1;SDS_P2;PMS_P1;PMS_P2;Temp;Humidity;BMP_temperature;BMP_pressure;BME280_temperature;BME280_humidity;BME280_pressure;Samples;Min_cycle;Max_cycle;Signal;HPM_P1;HPM_P2
2022/07/26 00:00:36;;;;;;;0.80;0.80;;;;;;;;;;5052533;28;20240;-77
2022/07/26 00:03:03;;;;;;;0.80;0.80;;;;;;;;;;5052535;28;20308;-77
2022/07/26 00:05:31;;;;;;;0.90;0.90;;;;;;;;;;5052138;28;20261;-77
2022/07/26 00:08:10;;;;;;;1.42;1.13;;;;;;;;;;5052224;28;20308;-78
2022/07/26 00:10:43;;;;;;;0.98;0.98;;;;;;;;;;5052859;28;20201;-77
2022/07/26 00:13:11;;;;;;;1.10;1.10;;;;;;;;;;5052979;28;20312;-77
2022/07/26 00:15:39;;;;;;;1.98;1.10;;;;;;;;;;5052688;28;20296;-77
2022/07/26 00:18:07;;;;;;;1.17;1.10;;;;;;;;;;5052161;28;20289;-78
2022/07/26 00:20:35;;;;;;;1.00;1.00;;;;;;;;;;5043978;28;20298;-77
2022/07/26 00:23:02;;;;;;;0.80;0.80;;;;;;;;;;5032607;28;20222;-77
2022/07/26 00:25:30;;;;;;;1.15;0.82;;;;;;;;;;5032320;28;20296;-77
2022/07/26 00:27:59;;;;;;;0.77;0.77;;;;;;;;;;5032028;28;20721;-77
2022/07/26 00:30:27;;;;;;;1.13;1.05;;;;;;;;;;5032214;28;20337;-77
2022/07/26 00:32:55;;;;;;;0.70;0.70;;;;;;;;;;5032122;28;20309;-78
2022/07/26 00:35:22;;;;;;;0.95;0.70;;;;;;;;;;5032300;28;20202;-77
2022/07/26 00:37:50;;;;;;;1.13;1.13;;;;;;;;;;5032091;28;20777;-77
2022/07/26 00:40:18;;;;;;;2.58;1.17;;;;;;;;;;5031952;28;20297;-77
2022/07/26 00:42:45;;;;;;;1.25;0.98;;;;;;;;;;5032153;28;20254;-77
2022/07/26 00:45:15;;;;;;;1.00;0.90;;;;;;;;;;5031787;28;20285;-77
2022/07/26 00:47:43;;;;;;;0.80;0.80;;;;;;;;;;5032252;28;20222;-77
2022/07/26 00:50:14;;;;;;;1.23;0.73;;;;;;;;;;5031846;28;20210;-77
2022/07/26 00:52:42;;;;;;;0.80;0.80;;;;;;;;;;5031972;28;20254;-77
2022/07/26 00:55:10;;;;;;;0.70;0.70;;;;;;;;;;5031734;28;20285;-78
2022/07/26 00:57:39;;;;;;;1.45;1.35;;;;;;;;;;5031415;28;20242;-77
2022/07/26 01:00:11;;;;;;;1.13;0.88;;;;;;;;;;5032474;28;20656;-77
2022/07/26 01:02:40;;;;;;;1.20;1.10;;;;;;;;;;5031981;28;20264;-77
2022/07/26 01:05:09;;;;;;;0.77;0.73;;;;;;;;;;5031757;28;20285;-77
2022/07/26 01:07:38;;;;;;;1.50;1.00;;;;;;;;;;5031528;28;20317;-78
2022/07/26 01:10:10;;;;;;;0.75;0.75;;;;;;;;;;5031832;28;20632;-77
2022/07/26 01:12:38;;;;;;;0.50;0.50;;;;;;;;;;5031910;28;20214;-78
2022/07/26 01:15:08;;;;;;;0.60;0.60;;;;;;;;;;5031897;28;20663;-78
2022/07/26 01:17:36;;;;;;;0.80;0.80;;;;;;;;;;5031632;28;20283;-77
2022/07/26 01:20:07;;;;;;;0.98;0.98;;;;;;;;;;5031403;28;20305;-77
2022/07/26 01:22:36;;;;;;;0.65;0.65;;;;;;;;;;5031646;28;20225;-77
2022/07/26 01:25:05;;;;;;;1.33;0.55;;;;;;;;;;5032031;28;20230;-77
2022/07/26 01:27:33;;;;;;;0.70;0.70;;;;;;;;;;5031160;28;20222;-78
2022/07/26 01:30:00;;;;;;;1.65;1.20;;;;;;;;;;5031609;28;20297;-77
2022/07/26 01:32:28;;;;;;;0.80;0.80;;;;;;;;;;5031504;28;20226;-76
2022/07/26 01:34:55;;;;;;;1.00;0.70;;;;;;;;;;5031349;28;20202;-77
2022/07/26 01:37:23;;;;;;;0.77;0.73;;;;;;;;;;5031175;28;20297;-77
2022/07/26 01:39:52;;;;;;;0.90;0.90;;;;;;;;;;5031690;28;20233;-77
2022/07/26 01:42:19;;;;;;;0.80;0.80;;;;;;;;;;5031633;28;20222;-78
2022/07/26 01:44:47;;;;;;;1.40;1.00;;;;;;;;;;5031307;28;20199;-77
2022/07/26 01:47:14;;;;;;;0.85;0.65;;;;;;;;;;5031220;28;20229;-76
2022/07/26 01:49:42;;;;;;;0.57;0.57;;;;;;;;;;5031496;28;20199;-77
2022/07/26 01:52:09;;;;;;;0.70;0.70;;;;;;;;;;5031528;28;20219;-77
2022/07/26 01:54:37;;;;;;;0.70;0.70;;;;;;;;;;5031349;28;20203;-77
2022/07/26 01:57:06;;;;;;;4.07;1.20;;;;;;;;;;5031080;28;20281;-77
2022/07/26 01:59:33;;;;;;;1.02;1.00;;;;;;;;;;5031367;28;20734;-77
2022/07/26 02:02:01;;;;;;;0.82;0.80;;;;;;;;;;5040358;28;20249;-78
2022/07/26 02:07:10;;;;;;;1.10;0.80;;;;;;;;;;5034363;28;20221;-77
2022/07/26 02:09:37;;;;;;;0.82;0.82;;;;;;;;;;5054942;28;20208;-77
2022/07/26 02:12:07;;;;;;;0.70;0.70;;;;;;;;;;5054846;28;20304;-77
2022/07/26 02:14:34;;;;;;;3.13;1.00;;;;;;;;;;5055246;28;20304;-77
2022/07/26 02:17:02;;;;;;;2.28;0.80;;;;;;;;;;5054647;28;20198;-78
2022/07/26 02:19:31;;;;;;;0.52;0.52;;;;;;;;;;5054751;28;20737;-77
2022/07/26 02:21:59;;;;;;;0.60;0.60;;;;;;;;;;5051123;28;20308;-77
2022/07/26 02:24:28;;;;;;;0.55;0.55;;;;;;;;;;5054606;28;20740;-77
2022/07/26 02:26:56;;;;;;;0.60;0.60;;;;;;;;;;5054631;28;20639;-76
2022/07/26 02:29:25;;;;;;;0.70;0.70;;;;;;;;;;5054457;28;20240;-77
2022/07/26 02:31:54;;;;;;;0.80;0.80;;;;;;;;;;5054544;28;20202;-76
2022/07/26 02:34:21;;;;;;;1.50;0.98;;;;;;;;;;5054626;28;20286;-77
2022/07/26 02:36:49;;;;;;;1.38;1.10;;;;;;;;;;5054324;28;20288;-77
2022/07/26 02:39:17;;;;;;;0.77;0.73;;;;;;;;;;5054074;28;20625;-76
2022/07/26 02:41:44;;;;;;;0.70;0.70;;;;;;;;;;5054446;28;20284;-77
2022/07/26 02:44:12;;;;;;;0.70;0.70;;;;;;;;;;5054278;28;20219;-77
2022/07/26 02:46:41;;;;;;;0.60;0.60;;;;;;;;;;5054100;28;20289;-77
2022/07/26 02:49:08;;;;;;;1.02;0.90;;;;;;;;;;5053869;28;20225;-78
2022/07/26 02:51:36;;;;;;;4.20;1.95;;;;;;;;;;5053849;28;20210;-77
2022/07/26 02:54:03;;;;;;;1.00;1.00;;;;;;;;;;5053909;28;20208;-76
2022/07/26 02:56:31;;;;;;;0.93;0.93;;;;;;;;;;5053804;28;20201;-77
2022/07/26 02:58:59;;;;;;;1.65;1.00;;;;;;;;;;5053827;28;20292;-77
2022/07/26 03:01:26;;;;;;;1.15;1.10;;;;;;;;;;5053898;28;20296;-76
2022/07/26 03:03:55;;;;;;;0.80;0.80;;;;;;;;;;5053630;28;20807;-78
2022/07/26 03:06:23;;;;;;;1.05;0.90;;;;;;;;;;5052965;28;20673;-76
2022/07/26 03:08:50;;;;;;;1.15;1.08;;;;;;;;;;5053784;28;20644;-76
2022/07/26 03:11:18;;;;;;;1.85;1.15;;;;;;;;;;5053820;28;20284;-77
2022/07/26 03:13:45;;;;;;;0.90;0.90;;;;;;;;;;5053596;28;20227;-77
2022/07/26 03:16:13;;;;;;;1.10;1.00;;;;;;;;;;5053584;28;20237;-78
2022/07/26 03:18:40;;;;;;;1.40;1.20;;;;;;;;;;5053063;28;20193;-77
2022/07/26 03:21:09;;;;;;;0.90;0.90;;;;;;;;;;5053636;28;20233;-77
2022/07/26 03:23:37;;;;;;;0.93;0.93;;;;;;;;;;5053560;28;20263;-78
2022/07/26 03:26:05;;;;;;;2.15;1.00;;;;;;;;;;5053846;28;20229;-77
2022/07/26 03:28:33;;;;;;;1.35;1.20;;;;;;;;;;5053099;28;20225;-77
2022/07/26 03:31:00;;;;;;;2.38;1.25;;;;;;;;;;5053717;28;20646;-77
2022/07/26 03:33:28;;;;;;;1.67;1.13;;;;;;;;;;5053357;28;20300;-77
2022/07/26 03:35:56;;;;;;;1.65;1.10;;;;;;;;;;5053277;28;20293;-76
2022/07/26 03:38:25;;;;;;;0.90;0.90;;;;;;;;;;5053062;28;20320;-77
2022/07/26 03:40:52;;;;;;;1.83;1.33;;;;;;;;;;5053276;28;20289;-77
2022/07/26 03:43:20;;;;;;;1.67;1.30;;;;;;;;;;5052895;28;20228;-77
2022/07/26 03:45:47;;;;;;;1.17;1.10;;;;;;;;;;5052207;28;20240;-77
2022/07/26 03:48:15;;;;;;;2.25;1.35;;;;;;;;;;5052541;28;20222;-77
2022/07/26 03:50:42;;;;;;;1.73;1.30;;;;;;;;;;5052924;28;20236;-77
2022/07/26 03:53:10;;;;;;;1.33;1.10;;;;;;;;;;5052799;28;20312;-78
2022/07/26 03:58:23;;;;;;;1.65;1.08;;;;;;;;;;5052800;28;20200;-77
2022/07/26 04:00:51;;;;;;;1.90;1.80;;;;;;;;;;5053022;28;20201;-78
2022/07/26 04:03:19;;;;;;;1.30;1.20;;;;;;;;;;5052910;28;20333;-77
2022/07/26 04:05:47;;;;;;;2.25;1.85;;;;;;;;;;5052494;28;20300;-77
2022/07/26 04:08:14;;;;;;;24.90;2.13;;;;;;;;;;5052606;28;20751;-78
2022/07/26 04:10:49;;;;;;;1.48;1.38;;;;;;;;;;5052488;28;20245;-77
2022/07/26 04:13:17;;;;;;;1.65;1.50;;;;;;;;;;5052923;28;20221;-77
2022/07/26 04:15:44;;;;;;;1.60;1.30;;;;;;;;;;5052436;28;20205;-77
2022/07/26 04:18:13;;;;;;;1.40;1.30;;;;;;;;;;5051957;28;20292;-77
2022/07/26 04:20:41;;;;;;;1.50;1.40;;;;;;;;;;5052379;28;20212;-77
2022/07/26 04:23:08;;;;;;;3.70;1.90;;;;;;;;;;5052566;28;20247;-77
2022/07/26 04:25:36;;;;;;;2.72;1.85;;;;;;;;;;5052354;28;20288;-77
2022/07/26 04:28:05;;;;;;;2.00;1.88;;;;;;;;;;5052082;28;20712;-77
2022/07/26 04:30:33;;;;;;;2.28;2.08;;;;;;;;;;5052342;28;20232;-77
2022/07/26 04:33:00;;;;;;;2.13;2.00;;;;;;;;;;5052225;28;20228;-77
2022/07/26 04:35:28;;;;;;;1.80;1.70;;;;;;;;;;5052215;28;20233;-78
2022/07/26 04:37:55;;;;;;;3.22;1.75;;;;;;;;;;5051759;28;20296;-77
2022/07/26 04:40:23;;;;;;;1.70;1.55;;;;;;;;;;5052194;28;20236;-78
2022/07/26 04:42:52;;;;;;;2.22;1.60;;;;;;;;;;5052033;28;20312;-77
2022/07/26 04:45:21;;;;;;;2.33;2.08;;;;;;;;;;5051956;28;20225;-77
2022/07/26 04:47:50;;;;;;;1.88;1.73;;;;;;;;;;5051890;28;20240;-77
2022/07/26 04:50:18;;;;;;;2.22;2.03;;;;;;;;;;5051905;28;20303;-77
2022/07/26 04:52:46;;;;;;;3.83;1.73;;;;;;;;;;5051991;28;20308;-77
2022/07/26 04:55:14;;;;;;;2.25;1.58;;;;;;;;;;5051926;28;20212;-77
2022/07/26 04:57:41;;;;;;;2.05;1.77;;;;;;;;;;5051735;28;20205;-77
2022/07/26 05:00:12;;;;;;;1.80;1.70;;;;;;;;;;5051976;28;20200;-77
2022/07/26 05:02:41;;;;;;;1.80;1.70;;;;;;;;;;5051958;28;20305;-78
2022/07/26 05:05:09;;;;;;;2.42;1.70;;;;;;;;;;5051786;28;20237;-77
2022/07/26 05:07:44;;;;;;;2.15;1.80;;;;;;;;;;5051103;28;20262;-77
2022/07/26 05:10:19;;;;;;;2.75;1.70;;;;;;;;;;5052009;28;20228;-77
2022/07/26 05:12:46;;;;;;;1.90;1.58;;;;;;;;;;5051874;28;20221;-78
2022/07/26 05:15:15;;;;;;;1.98;1.60;;;;;;;;;;5051902;28;20198;-78
2022/07/26 05:17:44;;;;;;;2.10;1.88;;;;;;;;;;5051722;28;20232;-77
2022/07/26 05:20:14;;;;;;;1.77;1.65;;;;;;;;;;5051047;28;20207;-78
2022/07/26 05:22:42;;;;;;;2.20;1.92;;;;;;;;;;5073910;23;20219;-83
2022/07/26 05:25:10;;;;;;;1.73;1.63;;;;;;;;;;5115998;28;20235;-83
2022/07/26 05:27:39;;;;;;;1.85;1.70;;;;;;;;;;5115562;28;20231;-85
2022/07/26 05:30:09;;;;;;;1.95;1.63;;;;;;;;;;5116480;28;20216;-83
2022/07/26 05:32:36;;;;;;;1.50;1.45;;;;;;;;;;5114884;28;20200;-83
2022/07/26 05:35:07;;;;;;;2.53;1.40;;;;;;;;;;5114593;28;20283;-85
2022/07/26 05:37:34;;;;;;;2.67;1.35;;;;;;;;;;5114149;28;20298;-83
2022/07/26 05:40:02;;;;;;;1.52;1.42;;;;;;;;;;5114637;28;20258;-86
2022/07/26 05:42:30;;;;;;;2.70;1.83;;;;;;;;;;5117112;28;20290;-84
2022/07/26 05:44:57;;;;;;;1.40;1.30;;;;;;;;;;5120139;28;20234;-84
2022/07/26 05:47:25;;;;;;;1.50;1.40;;;;;;;;;;5118961;28;20242;-82
2022/07/26 05:49:54;;;;;;;1.55;1.30;;;;;;;;;;5119837;28;20303;-83
2022/07/26 05:52:23;;;;;;;1.13;1.02;;;;;;;;;;5120002;28;20183;-84
2022/07/26 05:54:50;;;;;;;1.20;1.10;;;;;;;;;;5119442;28;20574;-86
2022/07/26 05:57:18;;;;;;;1.40;1.30;;;;;;;;;;5117623;28;20199;-83
2022/07/26 05:59:45;;;;;;;1.33;1.30;;;;;;;;;;5116491;28;20236;-84
2022/07/26 06:02:13;;;;;;;4.15;2.42;;;;;;;;;;5115919;28;20267;-84
2022/07/26 06:04:41;;;;;;;2.05;1.88;;;;;;;;;;5117349;28;20699;-84
2022/07/26 06:07:09;;;;;;;2.15;1.50;;;;;;;;;;5117501;28;20287;-85
2022/07/26 06:09:37;;;;;;;1.13;1.10;;;;;;;;;;5118027;28;20735;-84
2022/07/26 06:12:06;;;;;;;2.85;1.23;;;;;;;;;;5112497;28;20283;-85
2022/07/26 06:14:34;;;;;;;1.88;1.30;;;;;;;;;;5114018;28;20245;-84
2022/07/26 06:17:02;;;;;;;1.40;1.30;;;;;;;;;;5118840;28;20299;-84
2022/07/26 06:19:30;;;;;;;1.05;1.00;;;;;;;;;;5118490;28;20195;-84
2022/07/26 06:21:58;;;;;;;1.67;1.30;;;;;;;;;;5120696;28;20214;-85
2022/07/26 06:24:25;;;;;;;1.30;1.20;;;;;;;;;;5120515;28;20733;-84
2022/07/26 06:26:55;;;;;;;1.58;1.48;;;;;;;;;;5119168;28;20242;-84
2022/07/26 06:29:23;;;;;;;2.35;1.20;;;;;;;;;;5119800;28;20199;-83
2022/07/26 06:31:51;;;;;;;1.20;1.10;;;;;;;;;;5120014;28;20249;-84
2022/07/26 06:34:19;;;;;;;0.90;0.90;;;;;;;;;;5120250;28;20702;-85
2022/07/26 06:36:47;;;;;;;1.40;1.25;;;;;;;;;;5121737;28;20223;-85
2022/07/26 06:39:14;;;;;;;4.07;1.13;;;;;;;;;;5123453;28;20196;-84
2022/07/26 06:41:42;;;;;;;1.10;1.08;;;;;;;;;;5124057;28;20195;-86
2022/07/26 06:44:11;;;;;;;1.52;1.42;;;;;;;;;;5121779;28;20254;-85
2022/07/26 06:46:38;;;;;;;2.20;1.48;;;;;;;;;;5121038;28;20248;-84
2022/07/26 06:49:06;;;;;;;1.38;1.30;;;;;;;;;;5121713;28;20204;-84
2022/07/26 06:51:33;;;;;;;0.90;0.90;;;;;;;;;;5120748;28;20314;-86
2022/07/26 06:54:02;;;;;;;2.05;1.27;;;;;;;;;;5118740;28;20636;-84
2022/07/26 06:56:31;;;;;;;1.25;1.15;;;;;;;;;;5121945;28;20713;-86
2022/07/26 06:58:58;;;;;;;1.08;1.08;;;;;;;;;;5122338;28;20687;-84
2022/07/26 07:01:27;;;;;;;1.25;1.15;;;;;;;;;;5114836;28;20263;-84
2022/07/26 07:03:55;;;;;;;1.77;1.65;;;;;;;;;;5101095;28;20259;-84
2022/07/26 07:06:22;;;;;;;0.98;0.98;;;;;;;;;;5099715;28;20193;-84
2022/07/26 07:08:50;;;;;;;1.17;1.17;;;;;;;;;;5100993;28;20665;-85
2022/07/26 07:11:17;;;;;;;1.45;1.35;;;;;;;;;;5100194;28;20216;-85
2022/07/26 07:13:45;;;;;;;2.40;1.58;;;;;;;;;;5102165;28;20296;-83
2022/07/26 07:16:12;;;;;;;1.40;1.30;;;;;;;;;;5101346;28;20204;-82
2022/07/26 07:18:41;;;;;;;2.38;1.45;;;;;;;;;;5099656;28;20235;-84
2022/07/26 07:21:09;;;;;;;1.50;1.40;;;;;;;;;;5102256;28;20259;-84
2022/07/26 07:23:36;;;;;;;1.85;1.30;;;;;;;;;;5100900;28;20259;-85
2022/07/26 07:26:04;;;;;;;1.08;1.08;;;;;;;;;;5102840;28;20223;-85
2022/07/26 07:28:32;;;;;;;1.40;1.30;;;;;;;;;;5101640;28;20228;-82
2022/07/26 07:31:00;;;;;;;1.50;1.40;;;;;;;;;;5101752;28;20224;-87
2022/07/26 07:33:28;;;;;;;1.77;1.55;;;;;;;;;;5100716;28;20232;-86
2022/07/26 07:35:56;;;;;;;1.65;1.55;;;;;;;;;;5099005;28;20232;-85
2022/07/26 07:38:24;;;;;;;1.73;1.45;;;;;;;;;;5097618;28;20235;-86
2022/07/26 07:40:52;;;;;;;1.50;1.40;;;;;;;;;;5099256;28;20224;-87
2022/07/26 07:43:19;;;;;;;2.00;1.70;;;;;;;;;;5100809;28;20223;-87
2022/07/26 07:45:47;;;;;;;2.13;1.63;;;;;;;;;;5100866;28;20792;-87
2022/07/26 07:48:15;;;;;;;1.52;1.40;;;;;;;;;;5099819;28;20629;-86
2022/07/26 07:50:42;;;;;;;1.67;1.38;;;;;;;;;;5109980;28;20649;-85
2022/07/26 07:53:11;;;;;;;1.88;1.75;;;;;;;;;;5120874;28;20255;-86
2022/07/26 07:55:39;;;;;;;1.60;1.50;;;;;;;;;;5120408;28;20256;-86
2022/07/26 07:58:06;;;;;;;3.13;1.83;;;;;;;;;;5119107;28;20221;-85
2022/07/26 08:00:34;;;;;;;2.08;1.55;;;;;;;;;;5120961;28;20653;-84
2022/07/26 08:03:01;;;;;;;1.70;1.60;;;;;;;;;;5120485;28;20250;-85
2022/07/26 08:05:29;;;;;;;1.90;1.80;;;;;;;;;;5118862;28;20200;-85
2022/07/26 08:07:57;;;;;;;2.10;1.77;;;;;;;;;;5119152;28;20215;-86
2022/07/26 08:10:26;;;;;;;2.30;1.75;;;;;;;;;;5119896;28;20187;-85
2022/07/26 08:12:53;;;;;;;1.80;1.70;;;;;;;;;;5119795;28;20234;-86
2022/07/26 08:15:22;;;;;;;1.95;1.80;;;;;;;;;;5133078;22;20212;-78
2022/07/26 08:17:49;;;;;;;2.15;1.95;;;;;;;;;;5061769;28;20209;-80
2022/07/26 08:20:17;;;;;;;1.65;1.55;;;;;;;;;;5077250;28;20268;-80
2022/07/26 08:22:44;;;;;;;1.90;1.80;;;;;;;;;;5077492;28;20221;-80
2022/07/26 08:25:12;;;;;;;1.90;1.73;;;;;;;;;;5076917;28;20224;-80
2022/07/26 08:27:41;;;;;;;1.60;1.50;;;;;;;;;;5076448;28;20712;-80
2022/07/26 08:30:10;;;;;;;1.83;1.73;;;;;;;;;;5076478;28;20300;-81
2022/07/26 08:32:38;;;;;;;1.40;1.40;;;;;;;;;;5076380;28;20225;-80
2022/07/26 08:35:07;;;;;;;1.52;1.42;;;;;;;;;;5075653;28;20276;-80
2022/07/26 08:37:34;;;;;;;1.65;1.55;;;;;;;;;;5074454;28;20669;-79
2022/07/26 08:40:02;;;;;;;1.80;1.70;;;;;;;;;;5075579;28;20745;-80
2022/07/26 08:42:29;;;;;;;1.38;1.35;;;;;;;;;;5075986;28;20193;-80
2022/07/26 08:44:59;;;;;;;1.55;1.35;;;;;;;;;;5076292;28;20268;-80
2022/07/26 08:47:26;;;;;;;1.20;1.20;;;;;;;;;;5076021;28;20305;-80
2022/07/26 08:49:54;;;;;;;1.20;1.17;;;;;;;;;;5076446;28;20715;-80
2022/07/26 08:52:21;;;;;;;2.50;1.67;;;;;;;;;;5076917;28;20303;-80
2022/07/26 08:54:51;;;;;;;2.03;1.80;;;;;;;;;;5076456;28;20326;-80
2022/07/26 08:57:19;;;;;;;2.10;1.90;;;;;;;;;;5076811;28;20316;-80
2022/07/26 08:59:46;;;;;;;1.58;1.48;;;;;;;;;;5076971;28;20283;-80
2022/07/26 09:02:15;;;;;;;1.80;1.70;;;;;;;;;;5077223;28;20221;-80
2022/07/26 09:04:45;;;;;;;1.90;1.80;;;;;;;;;;5076949;28;20279;-80
2022/07/26 09:07:15;;;;;;;1.98;1.77;;;;;;;;;;5077669;28;20225;-80
2022/07/26 09:10:00;;;;;;;1.70;1.60;;;;;;;;;;5077498;28;20190;-80
2022/07/26 09:12:30;;;;;;;1.35;1.35;;;;;;;;;;5076839;28;20312;-80
2022/07/26 09:14:59;;;;;;;1.58;1.48;;;;;;;;;;5077218;28;20225;-80
2022/07/26 09:17:40;;;;;;;1.48;1.38;;;;;;;;;;5075935;28;20260;-80
2022/07/26 09:20:12;;;;;;;1.60;1.50;;;;;;;;;;5076941;28;20292;-80
2022/07/26 09:22:57;;;;;;;1.77;1.67;;;;;;;;;;5077328;28;20241;-79
2022/07/26 09:25:26;;;;;;;1.50;1.40;;;;;;;;;;5077336;28;20624;-80
2022/07/26 09:27:54;;;;;;;1.80;1.70;;;;;;;;;;5077628;28;20631;-80
2022/07/26 09:30:22;;;;;;;1.90;1.80;;;;;;;;;;5076402;28;20292;-80
2022/07/26 09:33:03;;;;;;;2.35;2.15;;;;;;;;;;5076973;28;20265;-80
2022/07/26 09:35:33;;;;;;;1.67;1.58;;;;;;;;;;5069271;28;20217;-80
2022/07/26 09:38:01;;;;;;;2.08;1.85;;;;;;;;;;5057821;28;20185;-80
2022/07/26 09:40:35;;;;;;;2.17;2.00;;;;;;;;;;5057342;28;20618;-80
2022/07/26 09:43:06;;;;;;;1.70;1.60;;;;;;;;;;5056327;28;20599;-80
2022/07/26 09:45:36;;;;;;;2.22;2.13;;;;;;;;;;5056410;28;20641;-80
2022/07/26 09:48:06;;;;;;;1.98;1.83;;;;;;;;;;5056067;28;20190;-80
2022/07/26 09:50:34;;;;;;;1.63;1.52;;;;;;;;;;5056539;28;20255;-80
2022/07/26 09:53:07;;;;;;;2.83;2.60;;;;;;;;;;5056175;28;20221;-80
2022/07/26 09:55:36;;;;;;;2.20;2.10;;;;;;;;;;5055915;28;20245;-81
2022/07/26 09:58:05;;;;;;;2.33;2.15;;;;;;;;;;5055676;28;20232;-80
2022/07/26 10:00:33;;;;;;;2.20;2.10;;;;;;;;;;5056345;28;20639;-80
2022/07/26 10:03:01;;;;;;;1.95;1.77;;;;;;;;;;5055623;28;20277;-79
2022/07/26 10:05:31;;;;;;;2.67;2.47;;;;;;;;;;5055673;28;20234;-80
2022/07/26 10:07:59;;;;;;;2.20;2.00;;;;;;;;;;5055437;28;20202;-81
2022/07/26 10:10:30;;;;;;;2.00;1.90;;;;;;;;;;5055416;28;20292;-80
2022/07/26 10:13:01;;;;;;;2.90;2.70;;;;;;;;;;5055105;28;20241;-80
2022/07/26 10:15:41;;;;;;;2.15;2.05;;;;;;;;;;5054906;28;20901;-80
2022/07/26 10:18:13;;;;;;;2.25;2.08;;;;;;;;;;5055256;28;20266;-80
2022/07/26 10:20:52;;;;;;;2.50;2.40;;;;;;;;;;5054599;28;20205;-80
2022/07/26 10:23:45;;;;;;;2.00;1.90;;;;;;;;;;5055241;28;20254;-80
2022/07/26 10:26:39;;;;;;;2.38;2.28;;;;;;;;;;5055352;28;20644;-80
2022/07/26 10:29:28;;;;;;;2.35;2.20;;;;;;;;;;5058078;28;20186;-80
2022/07/26 10:32:20;;;;;;;2.70;2.50;;;;;;;;;;5059009;28;20186;-80
2022/07/26 10:34:48;;;;;;;2.53;2.33;;;;;;;;;;5058976;28;20642;-80
2022/07/26 10:37:26;;;;;;;2.75;2.03;;;;;;;;;;5060074;28;20222;-80
2022/07/26 10:40:19;;;;;;;2.40;2.20;;;;;;;;;;5060240;28;20185;-80
2022/07/26 10:42:47;;;;;;;2.60;2.40;;;;;;;;;;5059640;28;20619;-80
2022/07/26 10:45:21;;;;;;;2.85;2.65;;;;;;;;;;5059897;28;20300;-80
2022/07/26 10:48:13;;;;;;;3.15;2.83;;;;;;;;;;5059492;28;20224;-80
2022/07/26 10:50:41;;;;;;;3.05;2.85;;;;;;;;;;5057482;28;20293;-78
2022/07/26 10:53:16;;;;;;;2.55;2.35;;;;;;;;;;5057612;28;20662;-78
2022/07/26 10:55:52;;;;;;;2.05;1.90;;;;;;;;;;5058092;28;20320;-78
2022/07/26 10:58:20;;;;;;;2.58;2.38;;;;;;;;;;5058056;28;20297;-78
2022/07/26 11:01:00;;;;;;;2.30;2.20;;;;;;;;;;5057616;28;20293;-78
2022/07/26 11:03:37;;;;;;;2.92;2.63;;;;;;;;;;5057906;28;20677;-81
2022/07/26 11:06:13;;;;;;;2.80;2.60;;;;;;;;;;5058884;28;20644;-81
2022/07/26 11:08:44;;;;;;;1.80;1.70;;;;;;;;;;5058752;28;20265;-81
2022/07/26 11:11:12;;;;;;;2.22;2.10;;;;;;;;;;5058791;28;20868;-81
2022/07/26 11:13:40;;;;;;;2.25;2.13;;;;;;;;;;5058734;28;20308;-81
2022/07/26 11:16:09;;;;;;;4.13;2.92;;;;;;;;;;5059067;28;20710;-81
2022/07/26 11:18:38;;;;;;;1.95;1.85;;;;;;;;;;5058969;28;20281;-81
2022/07/26 11:21:12;;;;;;;2.10;2.00;;;;;;;;;;5058881;28;20233;-79
2022/07/26 11:23:43;;;;;;;2.10;2.00;;;;;;;;;;5058364;28;20182;-81
2022/07/26 11:26:17;;;;;;;2.92;2.72;;;;;;;;;;5058105;28;20225;-83
2022/07/26 11:28:54;;;;;;;2.13;2.00;;;;;;;;;;5058053;28;20277;-81
2022/07/26 11:31:25;;;;;;;2.80;2.60;;;;;;;;;;5057970;28;20186;-81
2022/07/26 11:33:54;;;;;;;2.08;1.98;;;;;;;;;;5059177;28;20542;-81
2022/07/26 11:36:34;;;;;;;2.10;1.92;;;;;;;;;;5058954;28;20317;-81
2022/07/26 11:39:04;;;;;;;2.28;1.95;;;;;;;;;;5057963;28;20284;-81
2022/07/26 11:41:32;;;;;;;2.50;1.85;;;;;;;;;;5058057;28;20190;-81
2022/07/26 11:44:00;;;;;;;1.67;1.58;;;;;;;;;;5058298;28;20623;-81
2022/07/26 11:46:45;;;;;;;1.73;1.63;;;;;;;;;;5059035;28;20649;-81
2022/07/26 11:49:16;;;;;;;1.88;1.77;;;;;;;;;;5058663;28;20182;-78
2022/07/26 11:51:51;;;;;;;2.45;2.25;;;;;;;;;;5057097;28;20277;-79
2022/07/26 11:54:22;;;;;;;2.05;1.95;;;;;;;;;;5057377;28;20593;-78
2022/07/26 11:56:54;;;;;;;2.10;2.00;;;;;;;;;;5057414;28;20226;-79
2022/07/26 11:59:23;;;;;;;2.30;2.10;;;;;;;;;;5056955;28;20575;-79
2022/07/26 12:01:51;;;;;;;2.78;2.58;;;;;;;;;;5056439;28;20241;-78
2022/07/26 12:04:21;;;;;;;2.25;2.15;;;;;;;;;;5056816;28;20194;-79
2022/07/26 12:06:50;;;;;;;3.20;2.90;;;;;;;;;;5056610;28;20226;-79
2022/07/26 12:09:35;;;;;;;1.90;1.80;;;;;;;;;;5056693;28;20269;-79
2022/07/26 12:12:04;;;;;;;1.83;1.73;;;;;;;;;;5057300;28;20615;-79
2022/07/26 12:14:35;;;;;;;2.00;1.85;;;;;;;;;;5056411;28;20308;-82
2022/07/26 12:17:13;;;;;;;2.63;2.42;;;;;;;;;;5056403;28;20586;-82
2022/07/26 12:19:42;;;;;;;2.42;2.22;;;;;;;;;;5056842;28;20182;-82
2022/07/26 12:22:12;;;;;;;2.35;2.25;;;;;;;;;;5056447;28;20248;-81
2022/07/26 12:24:57;;;;;;;3.80;2.67;;;;;;;;;;5056977;28;20285;-82
2022/07/26 12:27:27;;;;;;;1.75;1.65;;;;;;;;;;5056914;28;20309;-80
2022/07/26 12:30:03;;;;;;;2.15;2.00;;;;;;;;;;5056609;28;20232;-81
2022/07/26 12:32:33;;;;;;;2.47;2.28;;;;;;;;;;5056060;28;20284;-81
2022/07/26 12:35:03;;;;;;;2.10;1.88;;;;;;;;;;5056835;28;20290;-81
2022/07/26 12:37:33;;;;;;;2.60;2.28;;;;;;;;;;5056361;28;20282;-81
2022/07/26 12:40:09;;;;;;;2.90;2.15;;;;;;;;;;5055793;28;20197;-79
2022/07/26 12:42:39;;;;;;;1.88;1.77;;;;;;;;;;5056804;28;20192;-79
2022/07/26 12:45:09;;;;;;;2.58;2.03;;;;;;;;;;5056601;28;20285;-79
2022/07/26 12:47:38;;;;;;;1.73;1.60;;;;;;;;;;5055790;28;20202;-80
2022/07/26 12:50:07;;;;;;;2.20;2.00;;;;;;;;;;5055816;28;20296;-80
2022/07/26 12:52:35;;;;;;;1.70;1.60;;;;;;;;;;5055090;28;20292;-80
2022/07/26 12:55:06;;;;;;;1.75;1.65;;;;;;;;;;5055534;28;20738;-80
2022/07/26 12:57:34;;;;;;;2.20;1.90;;;;;;;;;;5055419;28;20218;-80
2022/07/26 13:00:02;;;;;;;2.75;2.22;;;;;;;;;;5055606;28;20213;-80
2022/07/26 13:02:29;;;;;;;2.30;2.10;;;;;;;;;;5055520;28;20237;-80
2022/07/26 13:04:57;;;;;;;2.45;2.15;;;;;;;;;;5056619;28;20288;-80
2022/07/26 13:07:24;;;;;;;2.42;2.22;;;;;;;;;;5056018;28;20264;-80
2022/07/26 13:09:52;;;;;;;2.85;2.60;;;;;;;;;;5056045;28;20221;-79
2022/07/26 13:12:21;;;;;;;2.67;2.53;;;;;;;;;;5055990;28;20288;-80
2022/07/26 13:14:48;;;;;;;2.17;2.08;;;;;;;;;;5055572;28;20224;-80
2022/07/26 13:17:16;;;;;;;2.15;2.00;;;;;;;;;;5054685;28;20797;-79
2022/07/26 13:19:43;;;;;;;4.45;2.50;;;;;;;;;;5055298;28;20712;-80
2022/07/26 13:22:11;;;;;;;2.38;2.22;;;;;;;;;;5055639;28;20766;-80
2022/07/26 13:24:40;;;;;;;2.55;2.03;;;;;;;;;;5056383;28;20297;-79
2022/07/26 13:27:08;;;;;;;2.38;2.17;;;;;;;;;;5055209;28;20309;-79
2022/07/26 13:29:37;;;;;;;2.88;2.25;;;;;;;;;;5055697;28;20656;-80
2022/07/26 13:32:06;;;;;;;2.22;2.13;;;;;;;;;;5056229;28;20284;-80
2022/07/26 13:34:34;;;;;;;2.42;2.25;;;;;;;;;;5055320;28;20218;-80
2022/07/26 13:37:02;;;;;;;2.65;2.45;;;;;;;;;;5054425;28;20308;-80
2022/07/26 13:39:29;;;;;;;2.08;1.83;;;;;;;;;;5055985;28;20228;-80
2022/07/26 13:41:58;;;;;;;2.08;1.98;;;;;;;;;;5055177;28;20614;-79
2022/07/26 13:44:25;;;;;;;1.98;1.88;;;;;;;;;;5055725;28;20205;-79
2022/07/26 13:46:54;;;;;;;2.30;2.10;;;;;;;;;;5055228;28;20308;-80
2022/07/26 13:49:22;;;;;;;2.53;2.33;;;;;;;;;;5054600;28;20285;-81
2022/07/26 13:51:58;;;;;;;2.30;2.10;;;;;;;;;;5054256;28;20612;-81
2022/07/26 13:54:28;;;;;;;2.58;1.95;;;;;;;;;;5054356;28;20217;-81
2022/07/26 13:56:56;;;;;;;2.25;1.60;;;;;;;;;;5055070;28;20316;-80
2022/07/26 13:59:24;;;;;;;2.00;1.70;;;;;;;;;;5055154;28;20227;-80
2022/07/26 14:01:54;;;;;;;1.70;1.60;;;;;;;;;;5054825;28;20718;-80
2022/07/26 14:04:22;;;;;;;1.70;1.60;;;;;;;;;;5057295;28;20297;-80
2022/07/26 14:06:50;;;;;;;2.10;1.70;;;;;;;;;;5058508;28;20312;-81
2022/07/26 14:09:18;;;;;;;2.17;1.98;;;;;;;;;;5059113;28;20289;-80
2022/07/26 14:11:45;;;;;;;2.78;2.45;;;;;;;;;;5059025;28;20297;-81
2022/07/26 14:14:13;;;;;;;2.08;1.98;;;;;;;;;;5058875;28;20233;-81
2022/07/26 14:16:41;;;;;;;1.50;1.40;;;;;;;;;;5071890;22;20247;-78
2022/07/26 14:19:10;;;;;;;1.90;1.58;;;;;;;;;;5055584;28;20292;-78
2022/07/26 14:21:38;;;;;;;1.50;1.40;;;;;;;;;;5023961;28;20230;-77
2022/07/26 14:24:06;;;;;;;2.47;1.50;;;;;;;;;;5033284;28;20285;-78
2022/07/26 14:26:34;;;;;;;1.55;1.25;;;;;;;;;;5035715;28;20234;-78
2022/07/26 14:29:01;;;;;;;2.03;1.92;;;;;;;;;;5035713;28;20264;-78
2022/07/26 14:31:31;;;;;;;1.63;1.40;;;;;;;;;;5035296;28;20309;-80
2022/07/26 14:33:59;;;;;;;2.45;1.23;;;;;;;;;;5035765;28;20591;-78
2022/07/26 14:36:27;;;;;;;1.58;1.48;;;;;;;;;;5035670;28;20226;-79
2022/07/26 14:38:55;;;;;;;1.83;1.73;;;;;;;;;;5035486;28;20256;-78
2022/07/26 14:41:23;;;;;;;1.88;1.77;;;;;;;;;;5035738;28;20257;-78
2022/07/26 14:43:50;;;;;;;1.70;1.60;;;;;;;;;;5034872;28;20289;-78
2022/07/26 14:46:19;;;;;;;2.10;1.90;;;;;;;;;;5034961;28;20632;-78
2022/07/26 14:48:46;;;;;;;2.38;2.17;;;;;;;;;;5034877;28;20725;-78
2022/07/26 14:51:14;;;;;;;2.20;2.10;;;;;;;;;;5020623;28;20231;-79
2022/07/26 14:53:43;;;;;;;3.92;1.98;;;;;;;;;;5015191;28;20235;-78
2022/07/26 14:56:11;;;;;;;2.17;2.00;;;;;;;;;;5015274;28;20226;-78
2022/07/26 14:58:38;;;;;;;1.70;1.60;;;;;;;;;;5015101;28;20231;-78
2022/07/26 15:01:07;;;;;;;2.03;1.80;;;;;;;;;;5019565;28;20265;-78